createdAt,value
2018-03-14T00:01:06.282Z,9.00
2018-03-14T00:03:33.933Z,9.00
2018-03-14T00:06:01.543Z,9.00
2018-03-14T00:08:29.145Z,8.90
2018-03-14T00:10:56.695Z,8.90
2018-03-14T00:13:24.288Z,8.90
2018-03-14T00:15:51.836Z,8.90
2018-03-14T00:18:19.431Z,8.90
2018-03-14T00:20:46.977Z,8.80
2018-03-14T00:23:14.579Z,8.90
2018-03-14T00:25:42.131Z,8.80
2018-03-14T00:28:09.728Z,8.80
2018-03-14T00:30:37.272Z,8.80
2018-03-14T00:33:04.868Z,8.80
2018-03-14T00:35:32.415Z,8.80
2018-03-14T00:38:00.025Z,8.70
2018-03-14T00:40:28.346Z,8.70
2018-03-14T00:42:55.935Z,8.70
2018-03-14T00:45:24.251Z,8.70
2018-03-14T00:47:51.835Z,8.70
2018-03-14T00:50:19.397Z,8.70
2018-03-14T00:52:46.980Z,8.70
2018-03-14T00:55:14.532Z,8.60
2018-03-14T00:57:42.128Z,8.60
2018-03-14T01:00:10.452Z,8.60
2018-03-14T01:02:38.047Z,8.60
2018-03-14T01:05:05.597Z,8.60
2018-03-14T01:07:33.211Z,8.50
2018-03-14T01:10:00.777Z,8.50
2018-03-14T01:12:28.325Z,8.50
2018-03-14T01:14:55.932Z,8.50
2018-03-14T01:17:23.538Z,8.50
2018-03-14T01:19:51.885Z,8.50
2018-03-14T01:22:19.441Z,8.40
2018-03-14T01:24:47.049Z,8.40
2018-03-14T01:27:14.614Z,8.40
2018-03-14T01:29:42.220Z,8.40
2018-03-14T01:32:09.773Z,8.40
2018-03-14T01:34:37.367Z,8.40
2018-03-14T01:37:05.694Z,8.40
2018-03-14T01:39:33.293Z,8.30
2018-03-14T01:42:00.852Z,8.30
2018-03-14T01:44:29.217Z,8.30
2018-03-14T01:46:56.759Z,8.30
2018-03-14T01:49:24.361Z,8.30
2018-03-14T01:51:52.698Z,8.30
2018-03-14T01:54:20.288Z,8.30
2018-03-14T01:56:47.845Z,8.30
2018-03-14T01:59:15.445Z,8.20
2018-03-14T02:01:43.008Z,8.20
2018-03-14T02:04:11.361Z,8.20
2018-03-14T02:06:39.685Z,8.20
2018-03-14T02:09:07.282Z,8.10
2018-03-14T02:11:36.344Z,8.10
2018-03-14T02:14:03.958Z,8.10
2018-03-14T02:16:32.282Z,8.10
2018-03-14T02:18:59.883Z,8.10
2018-03-14T02:21:27.432Z,8.10
2018-03-14T02:23:55.036Z,8.10
2018-03-14T02:26:22.596Z,8.10
2018-03-14T02:28:50.202Z,8.00
2018-03-14T02:31:17.757Z,8.00
2018-03-14T02:33:45.306Z,8.00
2018-03-14T02:36:12.888Z,8.00
2018-03-14T02:38:40.444Z,8.00
2018-03-14T02:41:08.041Z,8.00
2018-03-14T02:43:36.367Z,7.90
2018-03-14T02:46:03.957Z,7.90
2018-03-14T02:48:31.492Z,7.90
2018-03-14T02:50:59.076Z,7.90
2018-03-14T02:53:26.614Z,7.90
2018-03-14T02:55:54.188Z,7.90
2018-03-14T02:58:21.721Z,7.90
2018-03-14T03:00:49.296Z,7.90
2018-03-14T03:03:16.824Z,7.90
2018-03-14T03:05:45.164Z,7.80
2018-03-14T03:08:12.701Z,7.80
2018-03-14T03:10:40.331Z,7.90
2018-03-14T03:13:08.608Z,7.80
2018-03-14T03:15:36.193Z,7.80
2018-03-14T03:18:03.723Z,7.80
2018-03-14T03:20:31.322Z,7.80
2018-03-14T03:22:58.860Z,7.70
2018-03-14T03:25:26.433Z,7.70
2018-03-14T03:27:53.992Z,7.70
2018-03-14T03:30:21.593Z,7.70
2018-03-14T03:32:49.129Z,7.70
2018-03-14T03:35:16.700Z,7.70
2018-03-14T03:37:44.223Z,7.70
2018-03-14T03:40:11.792Z,7.70
2018-03-14T03:42:39.321Z,7.60
2018-03-14T03:45:07.665Z,7.60
2018-03-14T03:47:35.196Z,7.60
2018-03-14T03:50:02.773Z,7.60
2018-03-14T03:52:30.317Z,7.60
2018-03-14T03:54:57.883Z,7.60
2018-03-14T03:57:25.419Z,7.60
2018-03-14T03:59:53.010Z,7.60
2018-03-14T04:02:20.550Z,7.50
2018-03-14T04:04:48.122Z,7.50
2018-03-14T04:07:15.656Z,7.50
2018-03-14T04:09:43.246Z,7.50
2018-03-14T04:12:10.786Z,7.50
2018-03-14T04:14:38.379Z,7.50
2018-03-14T04:17:06.689Z,7.50
2018-03-14T04:19:35.038Z,7.50
2018-03-14T04:22:02.580Z,7.40
2018-03-14T04:24:30.155Z,7.50
2018-03-14T04:26:57.682Z,7.40
2018-03-14T04:29:25.254Z,7.40
2018-03-14T04:31:52.842Z,7.50
2018-03-14T04:34:20.435Z,7.40
2018-03-14T04:36:47.987Z,7.40
2018-03-14T04:39:16.282Z,7.40
2018-03-14T04:41:43.857Z,7.40
2018-03-14T04:44:11.388Z,7.40
2018-03-14T04:46:38.963Z,7.40
2018-03-14T04:49:06.500Z,7.40
2018-03-14T04:51:34.840Z,7.30
2018-03-14T04:54:02.410Z,7.30
2018-03-14T04:56:29.953Z,7.30
2018-03-14T04:58:57.537Z,7.30
2018-03-14T05:01:25.074Z,7.30
2018-03-14T05:03:52.655Z,7.30
2018-03-14T05:06:20.189Z,7.30
2018-03-14T05:08:47.765Z,7.30
2018-03-14T05:11:15.349Z,7.30
2018-03-14T05:13:43.652Z,7.20
2018-03-14T05:16:11.229Z,7.20
2018-03-14T05:18:38.760Z,7.30
2018-03-14T05:21:07.107Z,7.20
2018-03-14T05:23:34.685Z,7.20
2018-03-14T05:26:03.026Z,7.20
2018-03-14T05:28:30.560Z,7.20
2018-03-14T05:30:58.142Z,7.20
2018-03-14T05:33:25.737Z,7.20
2018-03-14T05:35:54.045Z,7.20
2018-03-14T05:38:21.598Z,7.10
2018-03-14T05:40:49.191Z,7.20
2018-03-14T05:43:16.769Z,7.20
2018-03-14T05:45:44.312Z,7.20
2018-03-14T05:48:11.905Z,7.10
2018-03-14T05:50:39.443Z,7.10
2018-03-14T05:53:07.087Z,7.10
2018-03-14T05:55:34.661Z,7.10
2018-03-14T05:58:02.245Z,7.10
2018-03-14T06:00:30.549Z,7.10
2018-03-14T06:02:58.888Z,7.10
2018-03-14T06:05:27.193Z,7.10
2018-03-14T06:07:55.535Z,7.10
2018-03-14T06:10:23.067Z,7.10
2018-03-14T06:12:50.644Z,7.10
2018-03-14T06:15:18.171Z,7.10
2018-03-14T06:17:45.743Z,7.00
2018-03-14T06:20:13.279Z,7.00
2018-03-14T06:22:41.611Z,7.00
2018-03-14T06:25:09.150Z,7.00
2018-03-14T06:27:36.730Z,7.00
2018-03-14T06:30:04.264Z,7.00
2018-03-14T06:32:31.840Z,7.00
2018-03-14T06:34:59.373Z,7.00
2018-03-14T06:37:26.955Z,7.00
2018-03-14T06:39:54.492Z,7.00
2018-03-14T06:42:22.068Z,7.00
2018-03-14T06:44:49.603Z,7.00
2018-03-14T06:47:17.183Z,6.90
2018-03-14T06:49:44.722Z,6.90
2018-03-14T06:52:12.306Z,6.90
2018-03-14T06:54:39.845Z,6.90
2018-03-14T06:57:07.418Z,6.90
2018-03-14T06:59:46.938Z,6.70
2018-03-14T07:02:27.093Z,6.50
2018-03-14T07:05:06.622Z,6.40
2018-03-14T07:07:34.211Z,6.50
2018-03-14T07:10:01.754Z,6.60
2018-03-14T07:12:30.101Z,6.60
2018-03-14T07:14:57.644Z,6.60
2018-03-14T07:17:25.234Z,6.60
2018-03-14T07:19:53.540Z,6.60
2018-03-14T07:22:21.097Z,6.60
2018-03-14T07:24:48.666Z,6.60
2018-03-14T07:27:16.317Z,6.60
2018-03-14T07:29:43.925Z,6.60
2018-03-14T07:32:11.565Z,6.60
2018-03-14T07:34:39.132Z,6.60
2018-03-14T07:37:06.766Z,6.60
2018-03-14T07:39:34.378Z,6.50
2018-03-14T07:42:02.001Z,6.50
2018-03-14T07:44:29.552Z,6.50
2018-03-14T07:46:57.159Z,6.50
2018-03-14T07:49:24.714Z,6.50
2018-03-14T07:51:52.325Z,6.50
2018-03-14T07:54:19.865Z,6.50
2018-03-14T07:56:48.230Z,6.50
2018-03-14T07:59:15.765Z,6.50
2018-03-14T08:01:43.297Z,6.50
2018-03-14T08:04:10.923Z,6.50
2018-03-14T08:06:39.349Z,6.50
2018-03-14T08:09:06.933Z,6.50
2018-03-14T08:11:34.519Z,6.50
2018-03-14T08:14:02.876Z,6.50
2018-03-14T08:16:30.391Z,6.50
2018-03-14T08:18:57.967Z,6.50
2018-03-14T08:21:25.589Z,6.50
2018-03-14T08:23:53.108Z,6.50
2018-03-14T08:26:20.714Z,6.50
2018-03-14T08:28:48.255Z,6.50
2018-03-14T08:31:16.560Z,6.50
2018-03-14T08:33:44.131Z,6.50
2018-03-14T08:36:11.745Z,6.50
2018-03-14T08:38:39.277Z,6.50
2018-03-14T08:41:06.817Z,6.50
2018-03-14T08:43:34.403Z,6.50
2018-03-14T08:46:01.993Z,6.50
2018-03-14T08:48:29.538Z,6.50
2018-03-14T08:50:57.843Z,6.50
2018-03-14T08:53:26.196Z,6.50
2018-03-14T08:55:53.725Z,6.50
2018-03-14T08:58:21.312Z,6.50
2018-03-14T09:00:48.858Z,6.50
2018-03-14T09:03:16.446Z,6.50
2018-03-14T09:05:43.976Z,6.50
2018-03-14T09:08:11.548Z,6.50
2018-03-14T09:10:39.853Z,6.50
2018-03-14T09:13:08.194Z,6.50
2018-03-14T09:15:35.742Z,6.50
2018-03-14T09:18:03.325Z,6.60
2018-03-14T09:20:30.932Z,6.60
2018-03-14T09:22:58.471Z,6.60
2018-03-14T09:25:26.786Z,6.60
2018-03-14T09:27:54.373Z,6.60
2018-03-14T09:30:21.908Z,6.60
2018-03-14T09:32:49.497Z,6.60
2018-03-14T09:35:17.035Z,6.60
2018-03-14T09:37:44.615Z,6.60
2018-03-14T09:40:12.153Z,6.60
2018-03-14T09:42:39.723Z,6.60
2018-03-14T09:45:07.268Z,6.60
2018-03-14T09:47:34.856Z,6.60
2018-03-14T09:50:02.439Z,6.60
2018-03-14T09:52:29.972Z,6.60
2018-03-14T09:54:57.610Z,6.60
2018-03-14T09:57:25.141Z,6.60
2018-03-14T09:59:52.693Z,6.60
2018-03-14T10:02:21.036Z,6.60
2018-03-14T10:04:48.621Z,6.60
2018-03-14T10:07:16.944Z,6.60
2018-03-14T10:09:44.522Z,6.60
2018-03-14T10:12:12.064Z,6.70
2018-03-14T10:14:39.644Z,6.60
2018-03-14T10:17:07.176Z,6.70
2018-03-14T10:19:34.768Z,6.70
2018-03-14T10:22:02.305Z,6.70
2018-03-14T10:24:29.884Z,6.70
2018-03-14T10:26:57.525Z,6.70
2018-03-14T10:29:25.100Z,6.70
2018-03-14T10:31:52.635Z,6.70
2018-03-14T10:34:20.220Z,6.70
2018-03-14T10:36:47.821Z,6.70
2018-03-14T10:39:15.350Z,6.70
2018-03-14T10:41:42.936Z,6.70
2018-03-14T10:44:10.481Z,6.70
2018-03-14T10:46:38.060Z,6.80
2018-03-14T10:49:06.395Z,6.90
2018-03-14T10:51:33.965Z,6.90
2018-03-14T10:54:01.505Z,7.00
2018-03-14T10:56:29.085Z,7.00
2018-03-14T10:58:56.624Z,6.90
2018-03-14T11:01:24.210Z,7.00
2018-03-14T11:03:51.753Z,7.60
2018-03-14T11:06:19.334Z,8.70
2018-03-14T11:08:46.880Z,9.50
2018-03-14T11:11:14.519Z,10.10
2018-03-14T11:13:42.070Z,10.60
2018-03-14T11:16:09.648Z,11.50
2018-03-14T11:18:37.189Z,12.10
2018-03-14T11:21:04.737Z,12.60
2018-03-14T11:23:32.316Z,13.00
2018-03-14T11:25:59.865Z,13.20
2018-03-14T11:28:27.492Z,13.40
2018-03-14T11:30:55.926Z,13.10
2018-03-14T11:33:23.509Z,13.10
2018-03-14T11:35:51.092Z,12.70
2018-03-14T11:38:18.808Z,12.50
2018-03-14T11:40:46.423Z,12.30
2018-03-14T11:43:14.957Z,12.10
2018-03-14T11:45:42.634Z,12.10
2018-03-14T11:48:10.276Z,12.00
2018-03-14T11:50:37.819Z,12.10
2018-03-14T11:53:05.403Z,12.10
2018-03-14T11:55:32.956Z,12.40
2018-03-14T11:58:00.547Z,12.70
2018-03-14T12:00:28.856Z,12.90
2018-03-14T12:02:57.370Z,13.10
2018-03-14T12:05:25.019Z,13.10
2018-03-14T12:07:52.558Z,13.20
2018-03-14T12:10:20.897Z,13.20
2018-03-14T12:12:48.493Z,13.20
2018-03-14T12:15:16.796Z,13.10
2018-03-14T12:17:44.379Z,13.00
2018-03-14T12:20:11.927Z,13.10
2018-03-14T12:22:39.548Z,12.80
2018-03-14T12:25:08.047Z,12.50
2018-03-14T12:27:35.646Z,12.50
2018-03-14T12:30:03.366Z,12.40
2018-03-14T12:32:31.863Z,12.40
2018-03-14T12:34:59.544Z,12.40
2018-03-14T12:37:27.140Z,12.50
2018-03-14T12:39:55.516Z,13.10
2018-03-14T12:42:24.604Z,13.60
2018-03-14T12:44:52.156Z,13.60
2018-03-14T12:47:20.582Z,13.70
2018-03-14T12:49:48.888Z,13.30
2018-03-14T12:52:16.559Z,13.30
2018-03-14T12:54:44.097Z,13.20
2018-03-14T12:57:11.727Z,13.20
2018-03-14T12:59:39.255Z,13.30
2018-03-14T13:02:06.832Z,13.70
2018-03-14T13:04:34.431Z,13.60
2018-03-14T13:07:02.096Z,13.30
2018-03-14T13:09:29.655Z,13.00
2018-03-14T13:11:57.386Z,12.90
2018-03-14T13:14:24.962Z,12.80
2018-03-14T13:16:53.325Z,13.10
2018-03-14T13:19:21.825Z,13.20
2018-03-14T13:21:50.266Z,13.20
2018-03-14T13:24:17.911Z,13.20
2018-03-14T13:26:45.656Z,13.20
2018-03-14T13:29:13.356Z,13.00
2018-03-14T13:31:41.010Z,12.90
2018-03-14T13:34:08.670Z,12.80
2018-03-14T13:36:36.274Z,12.70
2018-03-14T13:39:04.680Z,12.60
2018-03-14T13:41:32.306Z,12.50
2018-03-14T13:44:00.617Z,12.60
2018-03-14T13:46:28.164Z,12.60
2018-03-14T13:48:56.535Z,12.60
2018-03-14T13:51:24.932Z,12.60
2018-03-14T13:53:53.304Z,12.70
2018-03-14T13:56:21.608Z,12.70
2018-03-14T13:58:49.212Z,12.70
2018-03-14T14:01:16.756Z,12.80
2018-03-14T14:03:45.318Z,12.90
2018-03-14T14:06:12.866Z,12.90
2018-03-14T14:08:40.448Z,12.90
2018-03-14T14:11:08.312Z,12.90
2018-03-14T14:13:35.927Z,12.90
2018-03-14T14:16:04.311Z,12.80
2018-03-14T14:18:32.744Z,12.80
2018-03-14T14:21:00.294Z,12.70
2018-03-14T14:23:28.153Z,12.80
2018-03-14T14:25:55.694Z,12.80
2018-03-14T14:28:23.379Z,12.70
2018-03-14T14:30:51.040Z,12.70
2018-03-14T14:33:18.692Z,12.60
2018-03-14T14:35:46.256Z,12.60
2018-03-14T14:38:13.844Z,12.50
2018-03-14T14:40:41.397Z,12.40
2018-03-14T14:43:09.044Z,12.40
2018-03-14T14:45:36.588Z,12.40
2018-03-14T14:48:04.235Z,12.40
2018-03-14T14:50:31.741Z,12.40
2018-03-14T14:52:59.333Z,12.30
2018-03-14T14:55:27.646Z,12.30
2018-03-14T14:57:55.228Z,12.30
2018-03-14T15:00:22.760Z,12.20
2018-03-14T15:02:50.349Z,12.20
2018-03-14T15:05:17.892Z,12.20
2018-03-14T15:07:45.477Z,12.10
2018-03-14T15:10:13.028Z,12.20
2018-03-14T15:12:40.605Z,12.10
2018-03-14T15:15:08.162Z,12.10
2018-03-14T15:17:35.759Z,12.10
2018-03-14T15:20:04.064Z,12.10
2018-03-14T15:22:31.634Z,12.10
2018-03-14T15:24:59.223Z,12.10
2018-03-14T15:27:26.759Z,12.00
2018-03-14T15:29:54.346Z,12.00
2018-03-14T15:32:21.929Z,12.00
2018-03-14T15:34:50.231Z,11.90
2018-03-14T15:37:17.818Z,11.90
2018-03-14T15:39:45.362Z,11.90
2018-03-14T15:42:12.946Z,11.90
2018-03-14T15:44:40.485Z,11.90
2018-03-14T15:47:08.077Z,11.90
2018-03-14T15:49:35.617Z,11.90
2018-03-14T15:52:03.159Z,11.80
2018-03-14T15:54:30.738Z,11.80
2018-03-14T15:56:58.325Z,11.80
2018-03-14T15:59:25.876Z,11.80
2018-03-14T16:01:53.411Z,11.80
2018-03-14T16:04:21.004Z,11.70
2018-03-14T16:06:48.599Z,11.70
2018-03-14T16:09:16.145Z,11.70
2018-03-14T16:11:43.683Z,11.60
2018-03-14T16:14:11.268Z,11.60
2018-03-14T16:16:39.572Z,11.50
2018-03-14T16:19:07.157Z,11.50
2018-03-14T16:21:34.700Z,11.50
2018-03-14T16:24:02.615Z,11.50
2018-03-14T16:26:30.167Z,11.50
2018-03-14T16:28:57.752Z,11.40
2018-03-14T16:31:26.116Z,11.40
2018-03-14T16:33:53.714Z,11.40
2018-03-14T16:36:21.278Z,11.30
2018-03-14T16:38:48.900Z,11.30
2018-03-14T16:41:16.442Z,11.30
2018-03-14T16:43:44.033Z,11.20
2018-03-14T16:46:11.564Z,11.20
2018-03-14T16:48:39.207Z,11.20
2018-03-14T16:51:06.766Z,11.20
2018-03-14T16:53:34.347Z,11.10
2018-03-14T16:56:01.894Z,11.10
2018-03-14T16:58:29.479Z,11.10
2018-03-14T17:00:57.028Z,11.00
2018-03-14T17:03:24.614Z,11.00
2018-03-14T17:05:52.929Z,10.90
2018-03-14T17:08:20.527Z,10.90
2018-03-14T17:10:48.064Z,10.90
2018-03-14T17:13:32.519Z,10.90
2018-03-14T17:16:03.374Z,10.80
2018-03-14T17:18:31.004Z,10.80
2018-03-14T17:20:58.551Z,10.80
2018-03-14T17:23:26.128Z,10.80
2018-03-14T17:25:53.664Z,10.70
2018-03-14T17:28:22.015Z,10.70
2018-03-14T17:30:51.070Z,10.60
2018-03-14T17:33:18.652Z,10.60
2018-03-14T17:35:46.198Z,10.60
2018-03-14T17:38:13.785Z,10.60
2018-03-14T17:40:41.336Z,10.60
2018-03-14T17:43:08.947Z,10.50
2018-03-14T17:45:36.499Z,10.50
2018-03-14T17:48:04.092Z,10.50
2018-03-14T17:50:31.643Z,10.40
2018-03-14T17:52:59.292Z,10.40
2018-03-14T17:55:26.835Z,10.30
2018-03-14T17:57:55.189Z,10.30
2018-03-14T18:00:22.781Z,10.30
2018-03-14T18:02:51.124Z,10.20
2018-03-14T18:05:18.670Z,10.20
2018-03-14T18:07:46.261Z,10.20
2018-03-14T18:10:13.950Z,10.10
2018-03-14T18:12:41.540Z,10.10
2018-03-14T18:15:09.085Z,10.10
2018-03-14T18:17:36.669Z,10.10
2018-03-14T18:20:04.235Z,10.00
2018-03-14T18:22:31.828Z,10.00
2018-03-14T18:25:00.257Z,10.00
2018-03-14T18:27:27.844Z,9.90
2018-03-14T18:29:56.176Z,9.90
2018-03-14T18:32:23.768Z,9.90
2018-03-14T18:34:51.314Z,9.90
2018-03-14T18:37:18.912Z,9.80
2018-03-14T18:39:46.453Z,9.80
2018-03-14T18:42:14.096Z,9.80
2018-03-14T18:44:41.637Z,9.70
2018-03-14T18:47:09.210Z,9.70
2018-03-14T18:49:36.751Z,9.70
2018-03-14T18:52:04.339Z,9.60
2018-03-14T18:54:31.876Z,9.60
2018-03-14T18:56:59.458Z,9.60
2018-03-14T18:59:27.038Z,9.50
2018-03-14T19:01:54.615Z,9.50
2018-03-14T19:04:22.152Z,9.50
2018-03-14T19:06:49.731Z,9.50
2018-03-14T19:09:17.271Z,9.40
2018-03-14T19:11:44.859Z,9.40
2018-03-14T19:14:12.419Z,9.40
2018-03-14T19:16:39.999Z,9.30
2018-03-14T19:19:08.301Z,9.30
2018-03-14T19:21:35.889Z,9.30
2018-03-14T19:24:03.433Z,9.20
2018-03-14T19:26:31.008Z,9.20
2018-03-14T19:28:58.541Z,9.20
2018-03-14T19:31:26.120Z,9.20
2018-03-14T19:33:53.656Z,9.10
2018-03-14T19:36:21.232Z,9.10
2018-03-14T19:38:48.759Z,9.10
2018-03-14T19:41:17.104Z,9.00
2018-03-14T19:43:44.646Z,9.00
2018-03-14T19:46:12.250Z,9.00
2018-03-14T19:48:40.556Z,8.90
2018-03-14T19:51:08.128Z,8.90
2018-03-14T19:53:35.664Z,8.90
2018-03-14T19:56:03.248Z,8.90
2018-03-14T19:58:30.800Z,8.80
2018-03-14T20:01:03.334Z,8.80
2018-03-14T20:03:31.642Z,8.70
2018-03-14T20:05:59.227Z,8.70
2018-03-14T20:08:26.769Z,8.70
2018-03-14T20:10:54.359Z,8.70
2018-03-14T20:13:21.894Z,8.70
2018-03-14T20:15:49.530Z,8.70
2018-03-14T20:18:17.044Z,8.60
2018-03-14T20:20:44.615Z,8.60
2018-03-14T20:23:12.162Z,8.60
2018-03-14T20:25:39.746Z,8.50
2018-03-14T20:28:07.294Z,8.50
2018-03-14T20:30:34.870Z,8.50
2018-03-14T20:33:03.233Z,8.40
2018-03-14T20:35:30.775Z,8.40
2018-03-14T20:37:58.313Z,8.40
2018-03-14T20:40:25.897Z,8.40
2018-03-14T20:42:53.443Z,8.30
2018-03-14T20:45:21.015Z,8.30
2018-03-14T20:47:48.560Z,8.30
2018-03-14T20:50:16.142Z,8.30
2018-03-14T20:52:43.690Z,8.20
2018-03-14T20:55:11.287Z,8.20
2018-03-14T20:57:38.832Z,8.20
2018-03-14T21:00:06.473Z,8.20
2018-03-14T21:02:33.991Z,8.10
2018-03-14T21:05:01.577Z,8.10
2018-03-14T21:07:29.117Z,8.10
2018-03-14T21:09:56.700Z,8.00
2018-03-14T21:12:24.257Z,8.00
2018-03-14T21:14:51.833Z,8.00
2018-03-14T21:17:19.378Z,7.90
2018-03-14T21:19:46.963Z,7.90
2018-03-14T21:22:14.506Z,7.90
2018-03-14T21:24:42.083Z,7.90
2018-03-14T21:27:09.633Z,7.90
2018-03-14T21:29:37.211Z,7.80
2018-03-14T21:32:04.839Z,7.80
2018-03-14T21:34:32.419Z,7.80
2018-03-14T21:36:59.977Z,7.80
2018-03-14T21:39:27.565Z,7.70
2018-03-14T21:41:55.108Z,7.70
2018-03-14T21:44:22.694Z,7.70
2018-03-14T21:46:51.005Z,7.60
2018-03-14T21:49:18.599Z,7.60
2018-03-14T21:51:46.145Z,7.60
2018-03-14T21:54:13.698Z,7.60
2018-03-14T21:56:41.300Z,7.60
2018-03-14T21:59:08.846Z,7.50
2018-03-14T22:01:36.433Z,7.50
2018-03-14T22:04:04.745Z,7.50
2018-03-14T22:06:32.392Z,7.50
2018-03-14T22:08:59.908Z,7.40
2018-03-14T22:11:27.545Z,7.40
2018-03-14T22:13:55.057Z,7.40
2018-03-14T22:16:23.417Z,7.30
2018-03-14T22:18:50.956Z,7.30
2018-03-14T22:21:18.537Z,7.30
2018-03-14T22:23:46.068Z,7.30
2018-03-14T22:26:13.646Z,7.30
2018-03-14T22:28:41.188Z,7.20
2018-03-14T22:31:08.767Z,7.20
2018-03-14T22:33:36.304Z,7.20
2018-03-14T22:36:03.889Z,7.20
2018-03-14T22:38:31.431Z,7.10
2018-03-14T22:40:59.010Z,7.10
2018-03-14T22:43:26.558Z,7.10
2018-03-14T22:45:54.141Z,7.10
2018-03-14T22:48:22.452Z,7.10
2018-03-14T22:50:50.036Z,7.00
2018-03-14T22:53:17.572Z,7.00
2018-03-14T22:55:45.151Z,7.00
2018-03-14T22:58:12.698Z,6.90
2018-03-14T23:00:40.285Z,6.90
2018-03-14T23:03:07.824Z,6.90
2018-03-14T23:05:35.414Z,6.90
2018-03-14T23:08:02.953Z,6.80
2018-03-14T23:10:30.536Z,6.80
2018-03-14T23:12:58.171Z,6.80
2018-03-14T23:15:25.755Z,6.80
2018-03-14T23:17:54.063Z,6.70
2018-03-14T23:20:22.426Z,6.70
2018-03-14T23:22:49.968Z,6.70
2018-03-14T23:25:17.561Z,6.70
2018-03-14T23:27:45.883Z,6.60
2018-03-14T23:30:13.476Z,6.60
2018-03-14T23:32:41.021Z,6.60
2018-03-14T23:35:08.644Z,6.60
2018-03-14T23:37:36.196Z,6.50
2018-03-14T23:40:03.737Z,6.50
2018-03-14T23:42:32.094Z,6.50
2018-03-14T23:44:59.681Z,6.50
2018-03-14T23:47:27.985Z,6.50
2018-03-14T23:49:55.573Z,6.40
2018-03-14T23:52:23.124Z,6.40
2018-03-14T23:54:50.711Z,6.40
2018-03-14T23:57:18.257Z,6.40
2018-03-14T23:59:45.852Z,6.30
